createdAt,value
2022-09-02T00:02:25.355Z,1.00
2022-09-02T00:04:52.960Z,1.00
2022-09-02T00:07:20.382Z,1.00
2022-09-02T00:09:47.884Z,1.00
2022-09-02T00:12:15.930Z,1.00
2022-09-02T00:14:43.347Z,1.00
2022-09-02T00:17:10.797Z,1.00
2022-09-02T00:19:38.639Z,1.00
2022-09-02T00:22:06.461Z,1.00
2022-09-02T00:24:34.070Z,1.00
2022-09-02T00:27:01.611Z,1.00
2022-09-02T00:29:30.937Z,1.00
2022-09-02T00:31:59.137Z,1.00
2022-09-02T00:34:26.712Z,1.00
2022-09-02T00:36:54.290Z,1.00
2022-09-02T00:39:21.762Z,1.00
2022-09-02T00:41:49.807Z,1.00
2022-09-02T00:44:21.699Z,1.00
2022-09-02T00:46:49.747Z,1.00
2022-09-02T00:49:26.182Z,1.00
2022-09-02T00:52:03.458Z,1.00
2022-09-02T00:54:34.587Z,1.00
2022-09-02T00:57:07.361Z,1.00
2022-09-02T00:59:51.366Z,1.00
2022-09-02T01:02:19.097Z,1.00
2022-09-02T01:04:46.842Z,1.00
2022-09-02T01:07:16.224Z,1.00
2022-09-02T01:09:44.064Z,1.00
2022-09-02T01:12:15.137Z,1.00
2022-09-02T01:14:43.038Z,1.00
2022-09-02T01:17:10.951Z,1.00
2022-09-02T01:19:44.814Z,1.00
2022-09-02T01:22:21.625Z,1.00
2022-09-02T01:24:49.372Z,1.00
2022-09-02T01:27:19.926Z,1.00
2022-09-02T01:29:53.318Z,99.90
2022-09-02T01:32:21.927Z,99.90
2022-09-02T01:34:49.706Z,99.90
2022-09-02T01:37:17.296Z,99.90
2022-09-02T01:39:45.950Z,99.90
2022-09-02T01:42:13.657Z,99.90
2022-09-02T01:44:44.305Z,99.90
2022-09-02T01:47:13.775Z,99.90
2022-09-02T01:49:41.410Z,99.90
2022-09-02T01:52:09.557Z,99.90
2022-09-02T01:54:37.020Z,99.90
2022-09-02T01:57:04.694Z,99.90
2022-09-02T01:59:32.445Z,99.90
2022-09-02T02:02:00.438Z,99.90
2022-09-02T02:04:29.113Z,99.90
2022-09-02T02:06:57.047Z,99.90
2022-09-02T02:09:25.014Z,99.90
2022-09-02T02:11:53.106Z,99.90
2022-09-02T02:14:20.613Z,99.90
2022-09-02T02:16:48.823Z,99.90
2022-09-02T02:19:16.682Z,99.90
2022-09-02T02:21:44.206Z,99.90
2022-09-02T02:24:12.151Z,99.90
2022-09-02T02:26:39.671Z,99.90
2022-09-02T02:29:07.400Z,99.90
2022-09-02T02:31:35.687Z,99.90
2022-09-02T02:34:04.155Z,99.90
2022-09-02T02:36:31.701Z,99.90
2022-09-02T02:39:01.563Z,99.90
2022-09-02T02:41:30.851Z,99.90
2022-09-02T02:43:58.378Z,99.90
2022-09-02T02:46:26.473Z,99.90
2022-09-02T02:48:54.102Z,99.90
2022-09-02T02:51:21.508Z,1.00
2022-09-02T02:53:48.936Z,99.90
2022-09-02T02:56:16.384Z,99.90
2022-09-02T02:58:44.133Z,1.00
2022-09-02T03:01:11.916Z,99.90
2022-09-02T03:03:39.338Z,99.90
2022-09-02T03:06:07.154Z,99.90
2022-09-02T03:08:35.874Z,99.90
2022-09-02T03:11:05.965Z,99.90
2022-09-02T03:13:33.821Z,99.90
2022-09-02T03:16:02.081Z,99.90
2022-09-02T03:18:29.565Z,99.90
2022-09-02T03:20:57.163Z,99.90
2022-09-02T03:23:24.547Z,99.90
2022-09-02T03:25:52.203Z,99.90
2022-09-02T03:28:20.003Z,99.90
2022-09-02T03:30:47.625Z,99.90
2022-09-02T03:33:15.324Z,99.90
2022-09-02T03:35:45.216Z,99.90
2022-09-02T03:38:13.812Z,99.90
2022-09-02T03:40:42.549Z,99.90
2022-09-02T03:43:11.235Z,99.90
2022-09-02T03:45:41.948Z,99.90
2022-09-02T03:48:12.815Z,99.90
2022-09-02T03:50:43.785Z,99.90
2022-09-02T03:53:18.205Z,1.00
2022-09-02T03:55:49.426Z,99.90
2022-09-02T03:58:18.440Z,99.90
2022-09-02T04:00:51.763Z,99.90
2022-09-02T04:03:20.640Z,99.90
2022-09-02T04:05:50.966Z,99.90
2022-09-02T04:08:19.965Z,99.90
2022-09-02T04:10:47.427Z,99.90
2022-09-02T04:13:14.885Z,99.90
2022-09-02T04:15:44.979Z,99.90
2022-09-02T04:18:12.862Z,99.90
2022-09-02T04:20:41.499Z,99.90
2022-09-02T04:23:09.459Z,99.90
2022-09-02T04:25:42.168Z,99.90
2022-09-02T04:28:09.825Z,99.90
2022-09-02T04:30:41.722Z,99.90
2022-09-02T04:33:10.244Z,99.90
2022-09-02T04:35:45.886Z,99.90
2022-09-02T04:38:13.295Z,99.90
2022-09-02T04:40:45.606Z,99.90
2022-09-02T04:43:14.294Z,90.40
2022-09-02T04:45:44.487Z,99.90
2022-09-02T04:48:12.533Z,99.90
2022-09-02T04:50:41.567Z,99.90
2022-09-02T04:53:09.218Z,63.40
2022-09-02T04:55:40.492Z,1.00
2022-09-02T04:58:09.172Z,1.00
2022-09-02T05:00:39.238Z,1.00
2022-09-02T05:03:06.932Z,1.00
2022-09-02T05:05:35.683Z,1.00
2022-09-02T05:08:04.791Z,1.00
2022-09-02T05:10:33.165Z,1.00
2022-09-02T05:13:01.022Z,1.00
2022-09-02T05:15:28.959Z,1.00
2022-09-02T05:17:56.541Z,1.00
2022-09-02T05:20:24.344Z,99.90
2022-09-02T05:22:51.756Z,99.90
2022-09-02T05:25:19.333Z,99.50
2022-09-02T05:27:46.756Z,1.00
2022-09-02T05:30:14.296Z,1.00
2022-09-02T05:32:42.409Z,1.00
2022-09-02T05:35:10.103Z,1.00
2022-09-02T05:37:37.639Z,1.00
2022-09-02T05:40:05.901Z,99.90
2022-09-02T05:42:35.722Z,99.90
2022-09-02T05:45:03.286Z,1.00
2022-09-02T05:47:30.712Z,1.00
2022-09-02T05:49:58.266Z,1.00
2022-09-02T05:52:26.245Z,99.90
2022-09-02T05:54:54.358Z,99.90
2022-09-02T05:57:22.427Z,1.00
2022-09-02T05:59:56.131Z,99.90
2022-09-02T06:02:25.964Z,99.90
2022-09-02T06:04:54.867Z,1.00
2022-09-02T06:07:24.709Z,99.90
2022-09-02T06:09:53.405Z,23.40
2022-09-02T06:12:21.042Z,1.00
2022-09-02T06:14:50.296Z,99.90
2022-09-02T06:17:20.859Z,99.90
2022-09-02T06:19:52.596Z,1.00
2022-09-02T06:22:20.404Z,1.00
2022-09-02T06:24:47.981Z,99.90
2022-09-02T06:27:15.614Z,1.00
2022-09-02T06:29:43.128Z,99.90
2022-09-02T06:32:10.710Z,99.90
2022-09-02T06:34:39.465Z,99.90
2022-09-02T06:37:07.066Z,75.00
2022-09-02T06:39:34.503Z,1.00
2022-09-02T06:42:02.045Z,1.00
2022-09-02T06:44:29.795Z,1.00
2022-09-02T06:47:00.716Z,1.00
2022-09-02T06:49:29.362Z,1.00
2022-09-02T06:51:57.695Z,1.00
2022-09-02T06:54:25.861Z,99.90
2022-09-02T06:56:53.835Z,99.90
2022-09-02T06:59:23.293Z,99.90
2022-09-02T07:01:52.697Z,99.90
2022-09-02T07:04:38.643Z,34.30
2022-09-02T07:07:08.566Z,1.00
2022-09-02T07:09:56.386Z,1.00
2022-09-02T07:12:27.267Z,1.00
2022-09-02T07:14:56.374Z,1.00
2022-09-02T07:17:25.149Z,99.90
2022-09-02T07:19:56.022Z,99.90
2022-09-02T07:22:23.646Z,99.90
2022-09-02T07:24:51.190Z,99.90
2022-09-02T07:27:20.498Z,99.90
2022-09-02T07:29:52.524Z,99.90
2022-09-02T07:32:20.149Z,99.90
2022-09-02T07:34:49.087Z,99.90
2022-09-02T07:37:16.769Z,99.90
2022-09-02T07:39:45.430Z,91.10
2022-09-02T07:42:14.771Z,25.40
2022-09-02T07:44:42.729Z,6.80
2022-09-02T07:47:10.243Z,1.30
2022-09-02T07:52:27.304Z,1.00
2022-09-02T07:54:57.987Z,1.00
2022-09-02T07:57:40.310Z,1.00
2022-09-02T08:00:12.459Z,1.00
2022-09-02T08:02:41.502Z,1.00
2022-09-02T08:05:09.651Z,1.00
2022-09-02T08:07:37.163Z,1.00
2022-09-02T08:10:08.654Z,1.00
2022-09-02T08:12:36.631Z,1.00
2022-09-02T08:15:07.918Z,99.90
2022-09-02T08:17:35.614Z,99.90
2022-09-02T08:20:03.483Z,99.90
2022-09-02T08:22:35.613Z,1.00
2022-09-02T08:25:03.322Z,1.00
2022-09-02T08:27:31.245Z,1.00
2022-09-02T08:30:01.667Z,99.90
2022-09-02T08:32:32.949Z,99.90
2022-09-02T08:35:03.047Z,99.90
2022-09-02T08:37:32.345Z,99.90
2022-09-02T08:40:04.836Z,99.90
2022-09-02T08:42:39.442Z,99.90
2022-09-02T08:45:39.280Z,99.90
2022-09-02T08:48:27.980Z,99.90
2022-09-02T08:51:01.924Z,99.90
2022-09-02T08:53:37.603Z,99.90
2022-09-02T08:56:08.975Z,99.90
2022-09-02T08:58:42.828Z,99.90
2022-09-02T09:01:14.383Z,99.90
2022-09-02T09:04:06.837Z,99.90
2022-09-02T09:06:41.331Z,99.90
2022-09-02T09:09:40.468Z,99.90
2022-09-02T09:12:22.933Z,99.90
2022-09-02T09:14:56.272Z,99.90
2022-09-02T09:17:33.821Z,99.90
2022-09-02T09:20:09.924Z,99.90
2022-09-02T09:22:40.934Z,99.90
2022-09-02T09:25:17.677Z,99.90
2022-09-02T09:27:48.138Z,99.90
2022-09-02T09:30:15.934Z,99.90
2022-09-02T09:32:57.517Z,99.90
2022-09-02T09:35:25.469Z,99.90
2022-09-02T09:37:54.460Z,99.90
2022-09-02T09:40:22.296Z,99.90
2022-09-02T09:42:55.527Z,99.90
2022-09-02T09:45:32.804Z,99.90
2022-09-02T09:48:29.258Z,99.90
2022-09-02T09:51:05.698Z,99.90
2022-09-02T09:53:36.535Z,99.90
2022-09-02T09:56:07.796Z,99.90
2022-09-02T09:58:41.293Z,99.90
2022-09-02T10:01:31.367Z,99.90
2022-09-02T10:04:39.302Z,99.90
2022-09-02T10:06:58.438Z,99.90
2022-09-02T10:09:32.188Z,99.90
2022-09-02T10:12:07.883Z,99.90
2022-09-02T10:14:50.476Z,99.90
2022-09-02T10:17:47.857Z,99.90
2022-09-02T10:20:26.148Z,99.90
2022-09-02T10:23:13.113Z,99.90
2022-09-02T10:26:13.065Z,99.90
2022-09-02T10:29:04.118Z,99.90
2022-09-02T10:31:41.507Z,99.90
2022-09-02T10:34:28.733Z,99.90
2022-09-02T10:37:02.385Z,99.90
2022-09-02T10:39:40.033Z,99.90
2022-09-02T10:42:22.810Z,99.90
2022-09-02T10:45:03.706Z,99.90
2022-09-02T10:47:37.561Z,99.90
2022-09-02T10:50:08.271Z,99.90
2022-09-02T10:52:54.144Z,99.90
2022-09-02T10:55:27.258Z,99.90
2022-09-02T10:57:59.974Z,99.90
2022-09-02T11:00:31.627Z,99.90
2022-09-02T11:03:11.332Z,99.90
2022-09-02T11:05:42.392Z,99.90
2022-09-02T11:08:14.404Z,99.90
2022-09-02T11:11:16.250Z,99.90
2022-09-02T11:13:55.643Z,99.90
2022-09-02T11:16:26.190Z,99.90
2022-09-02T11:19:06.868Z,99.90
2022-09-02T11:21:58.301Z,99.90
2022-09-02T11:24:43.319Z,99.90
2022-09-02T11:27:39.084Z,99.90
2022-09-02T11:30:20.083Z,99.90
2022-09-02T11:33:04.005Z,99.90
2022-09-02T11:35:38.828Z,99.90
2022-09-02T11:38:26.611Z,99.90
2022-09-02T11:41:33.995Z,99.90
2022-09-02T11:44:26.925Z,99.90
2022-09-02T11:47:15.627Z,99.90
2022-09-02T11:50:14.608Z,99.90
2022-09-02T11:53:12.722Z,99.90
2022-09-02T11:56:00.875Z,99.90
2022-09-02T11:58:36.871Z,99.90
2022-09-02T12:01:29.465Z,99.90
2022-09-02T12:05:01.575Z,99.90
2022-09-02T12:07:34.037Z,99.90
2022-09-02T12:10:06.318Z,98.00
2022-09-02T12:12:39.709Z,96.90
2022-09-02T12:15:07.890Z,97.60
2022-09-02T12:17:49.981Z,96.30
2022-09-02T12:20:36.504Z,94.00
2022-09-02T12:23:05.240Z,95.10
2022-09-02T12:25:38.338Z,98.20
2022-09-02T12:28:27.296Z,99.90
2022-09-02T12:31:24.098Z,99.90
2022-09-02T12:33:51.929Z,96.50
2022-09-02T12:36:37.967Z,97.50
2022-09-02T12:39:23.534Z,98.60
2022-09-02T12:42:12.045Z,94.40
2022-09-02T12:45:06.981Z,92.60
2022-09-02T12:47:53.505Z,92.80
2022-09-02T12:50:32.505Z,90.80
2022-09-02T12:53:41.876Z,92.40
2022-09-02T12:56:24.965Z,92.60
2022-09-02T12:59:01.588Z,95.60
2022-09-02T13:01:48.082Z,93.40
2022-09-02T13:04:24.976Z,95.00
2022-09-02T13:07:16.999Z,91.60
2022-09-02T13:09:59.525Z,91.00
2022-09-02T13:12:54.693Z,88.90
2022-09-02T13:15:59.721Z,87.30
2022-09-02T13:18:45.115Z,91.60
2022-09-02T13:21:48.252Z,82.90
2022-09-02T13:24:28.293Z,62.20
2022-09-02T13:27:31.267Z,61.60
2022-09-02T13:30:16.559Z,59.80
2022-09-02T13:32:44.579Z,57.50
2022-09-02T13:35:23.982Z,60.20
2022-09-02T13:38:00.625Z,58.40
2022-09-02T13:40:28.647Z,57.60
2022-09-02T13:43:03.993Z,58.10
2022-09-02T13:45:35.222Z,67.50
2022-09-02T13:48:26.817Z,68.00
2022-09-02T13:50:58.189Z,53.60
2022-09-02T13:53:45.414Z,49.00
2022-09-02T13:56:24.816Z,48.70
2022-09-02T13:58:56.866Z,46.90
2022-09-02T14:01:33.094Z,47.60
2022-09-02T14:04:11.568Z,47.80
2022-09-02T14:06:42.311Z,47.80
2022-09-02T14:09:22.478Z,47.90
2022-09-02T14:11:50.702Z,44.10
2022-09-02T14:14:22.270Z,45.60
2022-09-02T14:16:49.962Z,44.30
2022-09-02T14:19:17.330Z,46.70
2022-09-02T14:21:56.772Z,44.40
2022-09-02T14:24:26.134Z,46.10
2022-09-02T14:26:59.472Z,45.50
2022-09-02T14:29:30.042Z,44.20
2022-09-02T14:32:14.695Z,45.00
2022-09-02T14:34:47.661Z,45.50
2022-09-02T14:37:33.314Z,47.80
2022-09-02T14:40:11.714Z,48.60
2022-09-02T14:42:46.205Z,49.90
2022-09-02T14:45:14.224Z,50.50
2022-09-02T14:47:42.757Z,51.30
2022-09-02T14:50:17.699Z,54.30
2022-09-02T14:52:50.094Z,56.20
2022-09-02T14:55:53.058Z,56.40
2022-09-02T14:58:27.033Z,55.90
2022-09-02T15:00:58.115Z,54.10
2022-09-02T15:03:26.180Z,60.40
2022-09-02T15:05:54.044Z,58.80
2022-09-02T15:08:22.080Z,64.40
2022-09-02T15:10:50.336Z,65.60
2022-09-02T15:13:28.497Z,64.30
2022-09-02T15:15:56.711Z,67.90
2022-09-02T15:18:24.454Z,66.60
2022-09-02T15:20:52.766Z,66.50
2022-09-02T15:23:20.682Z,74.60
2022-09-02T15:25:48.377Z,75.70
2022-09-02T15:28:16.126Z,78.10
2022-09-02T15:30:43.650Z,80.30
2022-09-02T15:33:25.046Z,81.90
2022-09-02T15:35:52.470Z,84.20
2022-09-02T15:38:20.054Z,87.20
2022-09-02T15:40:47.855Z,87.00
2022-09-02T15:43:17.073Z,90.90
2022-09-02T15:45:48.553Z,91.80
2022-09-02T15:48:16.455Z,92.50
2022-09-02T15:50:45.634Z,92.80
2022-09-02T15:53:15.236Z,94.00
2022-09-02T15:55:42.870Z,95.20
2022-09-02T15:58:13.176Z,98.40
2022-09-02T16:00:40.858Z,99.90
2022-09-02T16:03:11.309Z,99.90
2022-09-02T16:05:38.785Z,99.90
2022-09-02T16:08:06.220Z,99.90
2022-09-02T16:10:36.848Z,99.90
2022-09-02T16:13:05.667Z,99.90
2022-09-02T16:15:34.346Z,99.90
2022-09-02T16:18:17.287Z,99.90
2022-09-02T16:20:46.372Z,99.90
2022-09-02T16:23:13.825Z,99.90
2022-09-02T16:25:41.314Z,99.90
2022-09-02T16:28:08.735Z,99.90
2022-09-02T16:30:36.265Z,99.90
2022-09-02T16:33:04.265Z,99.90
2022-09-02T16:35:32.224Z,99.90
2022-09-02T16:37:59.771Z,99.90
2022-09-02T16:40:27.215Z,99.90
2022-09-02T16:42:54.696Z,99.90
2022-09-02T16:45:22.177Z,99.90
2022-09-02T16:47:49.624Z,99.90
2022-09-02T16:50:17.164Z,99.90
2022-09-02T16:52:44.625Z,99.90
2022-09-02T16:55:17.885Z,99.90
2022-09-02T16:57:45.651Z,99.90
2022-09-02T17:00:13.979Z,99.90
2022-09-02T17:02:41.608Z,99.90
2022-09-02T17:05:10.952Z,99.90
2022-09-02T17:07:38.453Z,99.90
2022-09-02T17:10:06.416Z,99.90
2022-09-02T17:12:33.839Z,99.90
2022-09-02T17:15:01.664Z,99.90
2022-09-02T17:17:29.380Z,99.90
2022-09-02T17:19:56.797Z,99.90
2022-09-02T17:22:24.297Z,99.90
2022-09-02T17:24:55.309Z,99.90
2022-09-02T17:27:22.739Z,99.90
2022-09-02T17:29:50.448Z,99.90
2022-09-02T17:32:19.475Z,99.90
2022-09-02T17:34:48.591Z,99.90
2022-09-02T17:37:16.013Z,99.90
2022-09-02T17:39:43.678Z,99.90
2022-09-02T17:42:15.087Z,99.90
2022-09-02T17:44:43.099Z,99.90
2022-09-02T17:47:14.392Z,99.90
2022-09-02T17:49:44.810Z,99.90
2022-09-02T17:52:18.741Z,99.90
2022-09-02T17:54:49.826Z,99.90
2022-09-02T17:57:20.324Z,99.90
2022-09-02T17:59:59.117Z,99.90
2022-09-02T18:03:09.548Z,99.90
2022-09-02T18:05:55.214Z,99.90
2022-09-02T18:08:32.376Z,99.90
2022-09-02T18:11:04.700Z,99.90
2022-09-02T18:13:41.392Z,99.90
2022-09-02T18:16:32.476Z,99.90
2022-09-02T18:19:16.363Z,99.90
2022-09-02T18:22:14.676Z,99.90
2022-09-02T18:25:03.406Z,99.90
2022-09-02T18:27:44.242Z,99.90
2022-09-02T18:30:34.167Z,99.90
2022-09-02T18:33:38.574Z,99.90
2022-09-02T18:36:20.549Z,99.90
2022-09-02T18:39:32.516Z,99.90
2022-09-02T18:43:00.189Z,99.90
2022-09-02T18:45:59.003Z,99.90
2022-09-02T18:48:33.173Z,99.90
2022-09-02T18:51:24.355Z,99.90
2022-09-02T18:54:05.468Z,99.90
2022-09-02T18:56:36.397Z,99.90
2022-09-02T18:59:11.495Z,99.90
2022-09-02T19:01:46.254Z,99.90
2022-09-02T19:04:15.441Z,99.90
2022-09-02T19:06:42.920Z,99.90
2022-09-02T19:09:14.266Z,99.90
2022-09-02T19:11:42.201Z,99.90
2022-09-02T19:14:26.661Z,99.90
2022-09-02T19:16:55.797Z,99.90
2022-09-02T19:19:23.312Z,99.90
2022-09-02T19:21:58.252Z,99.90
2022-09-02T19:24:34.247Z,99.90
2022-09-02T19:27:15.285Z,99.90
2022-09-02T19:29:50.056Z,99.90
2022-09-02T19:32:24.910Z,99.90
2022-09-02T19:34:52.968Z,99.90
2022-09-02T19:37:20.720Z,99.90
2022-09-02T19:39:51.426Z,99.90
2022-09-02T19:42:20.786Z,99.90
2022-09-02T19:44:52.305Z,99.90
2022-09-02T19:48:05.038Z,99.90
2022-09-02T19:50:08.479Z,99.90
2022-09-02T19:52:45.055Z,99.90
2022-09-02T19:55:15.475Z,99.90
2022-09-02T19:57:43.415Z,99.90
2022-09-02T20:00:12.930Z,99.90
2022-09-02T20:02:41.357Z,99.90
2022-09-02T20:05:10.677Z,99.90
2022-09-02T20:07:38.803Z,99.90
2022-09-02T20:10:07.659Z,99.90
2022-09-02T20:12:36.486Z,99.90
2022-09-02T20:15:06.808Z,99.90
2022-09-02T20:17:34.797Z,99.90
2022-09-02T20:20:11.735Z,99.90
2022-09-02T20:22:39.233Z,99.90
2022-09-02T20:25:06.853Z,99.90
2022-09-02T20:27:43.254Z,99.90
2022-09-02T20:30:16.038Z,99.90
2022-09-02T20:33:10.752Z,99.90
2022-09-02T20:36:04.750Z,99.90
2022-09-02T20:38:50.022Z,99.90
2022-09-02T20:41:34.436Z,99.90
2022-09-02T20:44:07.017Z,99.90
2022-09-02T20:46:41.077Z,99.90
2022-09-02T20:49:16.381Z,99.90
2022-09-02T20:52:05.260Z,99.90
2022-09-02T20:54:40.884Z,99.90
2022-09-02T20:57:17.450Z,99.90
2022-09-02T21:00:10.044Z,99.90
2022-09-02T21:03:11.100Z,99.90
2022-09-02T21:05:44.091Z,99.90
2022-09-02T21:08:38.964Z,99.90
2022-09-02T21:11:13.176Z,99.90
2022-09-02T21:14:05.692Z,99.90
2022-09-02T21:16:42.973Z,99.90
2022-09-02T21:19:23.200Z,99.90
2022-09-02T21:21:53.924Z,99.90
2022-09-02T21:24:55.061Z,99.90
2022-09-02T21:27:31.657Z,99.90
2022-09-02T21:30:06.904Z,99.90
2022-09-02T21:32:49.746Z,99.90
2022-09-02T21:35:24.419Z,99.90
2022-09-02T21:37:59.217Z,99.90
2022-09-02T21:40:45.629Z,99.90
2022-09-02T21:43:28.445Z,99.90
2022-09-02T21:46:20.143Z,99.90
2022-09-02T21:49:13.359Z,99.90
2022-09-02T21:52:10.568Z,99.90
2022-09-02T21:54:41.146Z,99.90
2022-09-02T21:57:34.462Z,99.90
2022-09-02T22:00:08.962Z,99.90
2022-09-02T22:02:51.458Z,99.90
2022-09-02T22:05:33.063Z,99.90
2022-09-02T22:08:15.631Z,99.90
2022-09-02T22:10:54.978Z,99.90
2022-09-02T22:13:24.403Z,99.90
2022-09-02T22:16:05.266Z,99.90
2022-09-02T22:18:38.173Z,99.90
2022-09-02T22:21:11.598Z,99.90
2022-09-02T22:23:40.046Z,99.90
2022-09-02T22:26:28.938Z,99.90
2022-09-02T22:29:04.831Z,99.90
2022-09-02T22:31:36.183Z,99.90
2022-09-02T22:34:08.068Z,99.90
2022-09-02T22:36:52.316Z,99.90
2022-09-02T22:39:25.114Z,99.90
2022-09-02T22:42:21.528Z,99.90
2022-09-02T22:45:16.956Z,99.90
2022-09-02T22:48:10.319Z,99.90
2022-09-02T22:51:02.458Z,99.90
2022-09-02T22:53:30.310Z,99.90
2022-09-02T22:56:03.650Z,99.90
2022-09-02T22:58:48.206Z,99.90
2022-09-02T23:01:51.724Z,99.90
2022-09-02T23:04:29.070Z,99.90
2022-09-02T23:07:01.918Z,99.90
2022-09-02T23:09:30.778Z,99.90
2022-09-02T23:12:20.003Z,99.90
2022-09-02T23:14:52.535Z,99.90
2022-09-02T23:17:34.830Z,99.90
2022-09-02T23:20:25.514Z,99.90
2022-09-02T23:23:14.515Z,99.90
2022-09-02T23:26:09.851Z,99.90
2022-09-02T23:29:00.349Z,99.90
2022-09-02T23:31:53.541Z,99.90
2022-09-02T23:34:27.148Z,99.90
2022-09-02T23:37:13.059Z,99.90
2022-09-02T23:39:52.306Z,99.90
2022-09-02T23:42:20.152Z,99.90
2022-09-02T23:44:48.121Z,99.90
2022-09-02T23:47:24.408Z,99.90
2022-09-02T23:50:28.539Z,99.90
2022-09-02T23:53:28.371Z,99.90
2022-09-02T23:56:33.470Z,99.90
2022-09-02T23:59:09.147Z,99.90
